Time;durP1;ratioP1;P1;durP2;ratioP2;P2;SDS_P1;SDS_P2;PMS_P1;PMS_P2;Temp;Humidity;BMP_temperature;BMP_pressure;BME280_temperature;BME280_humidity;BME280_pressure;Samples;Min_cycle;Max_cycle;Signal;HPM_P1;HPM_P2
2023/09/26 00:00:27;;;;;;;12.87;7.17;;;;;;;20.29;82.19;95217.69;5052087;28;20446;-85
2023/09/26 00:02:54;;;;;;;20.40;7.00;;;;;;;20.21;82.21;95223.09;5052657;28;20522;-87
2023/09/26 00:05:23;;;;;;;13.33;7.00;;;;;;;20.23;83.18;95221.06;5058428;28;20916;-85
2023/09/26 00:07:51;;;;;;;14.23;8.57;;;;;;;20.27;83.44;95222.38;5060179;28;20535;-85
2023/09/26 00:10:19;;;;;;;15.40;8.03;;;;;;;20.26;83.61;95226.06;5095389;28;20812;-86
2023/09/26 00:12:46;;;;;;;14.10;6.70;;;;;;;20.22;83.74;95223.91;5095228;28;20507;-87
2023/09/26 00:15:13;;;;;;;12.43;8.20;;;;;;;20.11;83.67;95219.84;5094836;28;20477;-87
2023/09/26 00:17:41;;;;;;;22.10;8.33;;;;;;;20.03;84.06;95220.75;5094961;28;20439;-86
2023/09/26 00:20:27;;;;;;;19.97;7.30;;;;;;;20.06;84.28;95222.25;5094732;28;20500;-85
2023/09/26 00:22:55;;;;;;;13.27;6.83;;;;;;;20.09;84.46;95229.88;5094513;28;20482;-86
2023/09/26 00:25:24;;;;;;;9.50;7.73;;;;;;;20.11;84.60;95225.19;5059007;28;20931;-87
2023/09/26 00:27:52;;;;;;;12.03;7.60;;;;;;;20.09;84.43;95225.38;5094640;28;20489;-86
2023/09/26 00:30:19;;;;;;;9.67;8.70;;;;;;;20.10;84.61;95219.03;5094845;28;20516;-85
2023/09/26 00:32:46;;;;;;;13.93;7.30;;;;;;;20.10;85.36;95220.88;5095969;28;20450;-86
2023/09/26 00:35:13;;;;;;;15.47;7.87;;;;;;;20.12;85.61;95218.84;5094261;28;20443;-85
2023/09/26 00:37:44;;;;;;;11.53;8.40;;;;;;;20.06;86.00;95214.25;5095206;28;20450;-86
2023/09/26 00:40:15;;;;;;;17.30;8.50;;;;;;;20.06;85.83;95219.56;5094440;28;20439;-86
2023/09/26 00:42:43;;;;;;;13.63;7.67;;;;;;;20.04;85.40;95210.94;5094926;28;20493;-85
2023/09/26 00:45:11;;;;;;;7.73;6.90;;;;;;;20.10;85.55;95220.88;5094189;28;20445;-87
2023/09/26 00:47:39;;;;;;;12.10;8.20;;;;;;;20.06;85.77;95212.41;5093957;28;20974;-86
2023/09/26 00:50:07;;;;;;;13.20;7.23;;;;;;;20.06;85.98;95211.59;5094508;28;20801;-87
2023/09/26 00:52:35;;;;;;;9.97;7.80;;;;;;;20.04;85.68;95218.94;5093964;28;20503;-87
2023/09/26 00:55:05;;;;;;;13.93;8.07;;;;;;;20.00;85.99;95212.31;5094189;28;20942;-86
2023/09/26 00:57:33;;;;;;;14.70;7.20;;;;;;;19.97;86.63;95210.84;5093724;28;20449;-86
2023/09/26 01:00:02;;;;;;;9.90;7.67;;;;;;;19.93;86.88;95209.50;5093776;28;20532;-86
2023/09/26 01:02:29;;;;;;;15.00;7.90;;;;;;;19.92;86.75;95213.19;5074943;28;20477;-87
2023/09/26 01:04:56;;;;;;;13.73;7.53;;;;;;;19.90;86.63;95209.03;5093906;28;20440;-86
2023/09/26 01:07:23;;;;;;;14.43;7.93;;;;;;;19.87;86.81;95212.06;5093392;28;20441;-84
2023/09/26 01:09:50;;;;;;;11.97;8.03;;;;;;;19.82;86.58;95204.63;5073953;28;20486;-86
2023/09/26 01:12:17;;;;;;;10.17;7.03;;;;;;;19.77;86.85;95199.84;5093576;28;20455;-86
2023/09/26 01:14:44;;;;;;;10.20;6.80;;;;;;;19.75;86.93;95206.34;5093491;28;20445;-87
2023/09/26 01:17:12;;;;;;;9.73;7.07;;;;;;;19.68;86.96;95195.59;5093372;28;20444;-87
2023/09/26 01:19:39;;;;;;;11.83;7.33;;;;;;;19.68;87.29;95205.41;5093394;28;20440;-85
2023/09/26 01:22:07;;;;;;;15.13;7.63;;;;;;;19.64;87.52;95202.25;5093452;28;20496;-87
2023/09/26 01:24:37;;;;;;;12.20;8.90;;;;;;;19.66;87.33;95202.94;5093428;28;20444;-87
2023/09/26 01:27:04;;;;;;;13.03;7.87;;;;;;;19.64;87.48;95196.09;5093276;28;20809;-87
2023/09/26 01:29:31;;;;;;;21.67;7.90;;;;;;;19.59;87.28;95195.81;5092711;28;20909;-85
2023/09/26 01:31:58;;;;;;;13.70;7.30;;;;;;;19.57;87.16;95192.50;5093340;28;20938;-86
2023/09/26 01:34:25;;;;;;;13.23;7.30;;;;;;;19.49;87.50;95206.69;5092800;28;20532;-86
2023/09/26 01:36:52;;;;;;;9.97;7.17;;;;;;;19.46;87.36;95201.72;5092901;28;20444;-86
2023/09/26 01:39:18;;;;;;;19.43;7.60;;;;;;;19.41;87.78;95198.75;5092951;28;20447;-87
2023/09/26 01:41:47;;;;;;;19.97;7.60;;;;;;;19.36;87.84;95185.13;5093205;28;20436;-85
2023/09/26 01:44:14;;;;;;;16.57;8.00;;;;;;;19.34;87.84;95193.28;5093496;28;20463;-87
2023/09/26 01:46:40;;;;;;;7.97;7.10;;;;;;;19.33;87.68;95196.94;5057803;28;20447;-86
2023/09/26 01:49:07;;;;;;;9.10;6.40;;;;;;;19.31;87.62;95192.81;5073965;28;20844;-86
2023/09/26 01:51:34;;;;;;;17.60;8.50;;;;;;;19.26;87.46;95187.19;5093069;28;20440;-87
2023/09/26 01:54:01;;;;;;;9.63;7.50;;;;;;;19.22;87.79;95188.56;5093095;28;20444;-86
2023/09/26 01:56:27;;;;;;;21.50;8.37;;;;;;;19.17;87.85;95191.75;5093286;28;20450;-86
2023/09/26 01:58:56;;;;;;;10.00;7.30;;;;;;;19.17;87.90;95197.91;5093414;28;20448;-86
2023/09/26 02:01:22;;;;;;;11.80;6.67;;;;;;;19.14;87.94;95195.59;5093494;28;20445;-87
2023/09/26 02:03:49;;;;;;;13.23;6.53;;;;;;;19.13;87.87;95196.59;5093812;28;20447;-86
2023/09/26 02:06:16;;;;;;;13.33;7.97;;;;;;;19.08;88.07;95198.94;5094028;28;20434;-86
2023/09/26 02:08:43;;;;;;;9.13;7.10;;;;;;;19.06;88.16;95200.09;5093484;28;20486;-85
2023/09/26 02:11:09;;;;;;;11.07;6.63;;;;;;;19.07;88.37;95194.59;5093593;28;20450;-88
2023/09/26 02:13:36;;;;;;;12.20;7.67;;;;;;;19.06;88.20;95203.59;5093716;28;20446;-87
2023/09/26 02:16:11;;;;;;;9.93;6.90;;;;;;;19.03;88.25;95201.28;5093648;28;20418;-87
2023/09/26 02:18:37;;;;;;;11.57;7.43;;;;;;;18.99;88.47;95205.28;5093902;28;20463;-86
2023/09/26 02:21:04;;;;;;;13.57;6.77;;;;;;;18.98;88.32;95203.63;5078668;28;20434;-86
2023/09/26 02:23:32;;;;;;;12.23;7.53;;;;;;;18.96;88.09;95207.47;5098254;28;20438;-86
2023/09/26 02:25:58;;;;;;;8.23;6.87;;;;;;;18.93;88.42;95205.16;5097962;28;20452;-85
2023/09/26 02:28:25;;;;;;;8.10;6.40;;;;;;;18.91;88.30;95202.69;5078981;28;20471;-87
2023/09/26 02:30:52;;;;;;;9.70;7.90;;;;;;;18.85;88.51;95190.09;5098034;28;20466;-87
2023/09/26 02:33:20;;;;;;;13.13;6.57;;;;;;;18.89;88.28;95202.03;5099753;28;20442;-86
2023/09/26 02:35:47;;;;;;;14.53;6.80;;;;;;;18.87;88.24;95198.72;5100884;28;20451;-88
2023/09/26 02:38:14;;;;;;;9.50;7.40;;;;;;;18.85;87.95;95200.72;5100736;28;20447;-87
2023/09/26 02:40:40;;;;;;;7.60;6.90;;;;;;;18.83;87.87;95200.91;5113480;28;20440;-87
2023/09/26 02:43:08;;;;;;;14.40;7.00;;;;;;;18.83;87.79;95200.06;5118456;28;20424;-84
2023/09/26 02:45:35;;;;;;;12.87;8.30;;;;;;;18.80;87.85;95195.94;5115871;28;20468;-86
2023/09/26 02:48:04;;;;;;;10.40;6.70;;;;;;;18.81;87.71;95204.72;5118234;28;20590;-84
2023/09/26 02:50:32;;;;;;;10.13;7.10;;;;;;;18.80;87.78;95203.06;5118502;28;20445;-84
2023/09/26 02:52:59;;;;;;;9.67;7.13;;;;;;;18.79;87.84;95198.72;5118273;28;20457;-85
2023/09/26 02:55:26;;;;;;;9.40;7.43;;;;;;;18.76;87.88;95204.41;5117427;28;20447;-84
2023/09/26 02:57:52;;;;;;;15.53;7.60;;;;;;;18.76;87.89;95201.72;5117071;28;20432;-86
2023/09/26 03:00:20;;;;;;;9.47;6.83;;;;;;;18.76;87.74;95209.72;5117504;28;20443;-84
2023/09/26 03:02:48;;;;;;;9.97;7.00;;;;;;;18.75;87.75;95213.38;5118549;28;20425;-84
2023/09/26 03:05:17;;;;;;;8.60;7.03;;;;;;;18.74;87.74;95217.88;5118281;28;20420;-83
2023/09/26 03:07:45;;;;;;;14.43;7.20;;;;;;;18.71;87.61;95212.88;5116782;28;20424;-86
2023/09/26 03:10:12;;;;;;;13.90;7.30;;;;;;;18.74;87.69;95212.53;5119220;28;20416;-86
2023/09/26 03:12:43;;;;;;;20.93;7.43;;;;;;;18.73;87.75;95223.34;5118120;28;20423;-86
2023/09/26 03:15:11;;;;;;;11.87;7.97;;;;;;;18.69;87.83;95214.91;5119072;28;20433;-84
2023/09/26 03:17:37;;;;;;;9.63;7.20;;;;;;;18.69;87.80;95217.56;5119104;28;20427;-86
2023/09/26 03:20:08;;;;;;;11.20;7.07;;;;;;;18.70;87.59;95221.03;5118308;28;20436;-84
2023/09/26 03:22:35;;;;;;;19.27;7.60;;;;;;;18.66;87.31;95217.06;5118183;28;20416;-84
2023/09/26 03:25:03;;;;;;;15.03;7.40;;;;;;;18.69;87.29;95227.34;5081092;28;20439;-83
2023/09/26 03:27:30;;;;;;;11.33;7.37;;;;;;;18.71;87.07;95223.53;5100410;28;20429;-82
2023/09/26 03:29:57;;;;;;;13.47;7.60;;;;;;;18.65;86.93;95216.25;5115378;28;20483;-84
2023/09/26 03:32:24;;;;;;;10.43;6.73;;;;;;;18.63;87.00;95225.41;5079905;28;20453;-85
2023/09/26 03:34:51;;;;;;;17.77;7.30;;;;;;;18.66;86.72;95230.38;5103749;28;20459;-83
2023/09/26 03:37:17;;;;;;;14.17;7.80;;;;;;;18.67;86.38;95221.38;5112967;28;20443;-84
2023/09/26 03:39:47;;;;;;;10.53;7.10;;;;;;;18.67;86.06;95222.22;5111253;28;20443;-85
2023/09/26 03:42:15;;;;;;;15.43;5.60;;;;;;;18.65;85.58;95226.06;5117808;28;20443;-84
2023/09/26 03:44:43;;;;;;;11.30;6.80;;;;;;;18.68;85.32;95225.69;5110640;28;20444;-85
2023/09/26 03:47:10;;;;;;;12.47;5.90;;;;;;;18.66;85.82;95227.72;5115332;28;20447;-84
2023/09/26 03:49:36;;;;;;;10.00;7.13;;;;;;;18.65;85.97;95228.72;5116607;28;20467;-84
2023/09/26 03:52:03;;;;;;;13.13;6.60;;;;;;;18.65;86.30;95228.72;5113714;28;20452;-85
2023/09/26 03:54:31;;;;;;;10.90;6.60;;;;;;;18.66;86.43;95225.88;5109050;28;20423;-84
2023/09/26 03:56:58;;;;;;;14.50;7.00;;;;;;;18.65;86.82;95228.72;5100056;28;20440;-86
2023/09/26 03:59:26;;;;;;;22.27;7.20;;;;;;;18.66;86.65;95235.69;5077036;28;20446;-86
2023/09/26 04:01:53;;;;;;;11.10;7.40;;;;;;;18.38;87.07;95237.88;5096041;28;20446;-85
2023/09/26 04:04:20;;;;;;;12.10;7.33;;;;;;;18.42;86.78;95240.03;5095902;28;20441;-86
2023/09/26 04:06:46;;;;;;;16.40;6.70;;;;;;;18.43;86.83;95236.38;5096315;28;20796;-85
2023/09/26 04:09:14;;;;;;;13.10;6.87;;;;;;;18.46;86.39;95240.50;5095349;28;20612;-83
2023/09/26 04:11:44;;;;;;;14.00;10.77;;;;;;;18.46;86.49;95233.38;5094637;28;20446;-86
2023/09/26 04:14:11;;;;;;;14.33;7.60;;;;;;;18.46;86.28;95233.38;5095342;28;20849;-85
2023/09/26 04:16:40;;;;;;;11.10;7.77;;;;;;;18.46;86.25;95241.34;5095188;28;20455;-86
2023/09/26 04:19:07;;;;;;;15.70;7.97;;;;;;;18.45;86.22;95237.03;5075813;28;20450;-85
2023/09/26 04:21:34;;;;;;;10.23;7.63;;;;;;;18.45;86.15;95241.50;5094651;28;20436;-85
2023/09/26 04:24:04;;;;;;;15.50;7.20;;;;;;;18.46;85.66;95237.84;5060319;28;20434;-86
2023/09/26 04:26:31;;;;;;;12.50;7.00;;;;;;;18.47;85.29;95236.84;5095210;28;20434;-86
2023/09/26 04:28:57;;;;;;;9.20;6.60;;;;;;;18.48;85.22;95241.16;5095632;28;20498;-85
2023/09/26 04:31:24;;;;;;;9.23;7.53;;;;;;;18.47;85.31;95244.81;5095044;28;21045;-84
2023/09/26 04:33:53;;;;;;;12.33;7.30;;;;;;;18.46;84.75;95245.81;5097797;28;20435;-86
2023/09/26 04:36:19;;;;;;;19.77;8.93;;;;;;;18.46;84.45;95246.66;5094722;28;20880;-83
2023/09/26 04:38:47;;;;;;;17.13;7.63;;;;;;;18.49;84.39;95240.16;5059566;28;20436;-85
2023/09/26 04:41:14;;;;;;;25.10;7.00;;;;;;;18.46;83.60;95244.00;5095954;28;20904;-84
2023/09/26 04:43:41;;;;;;;31.17;7.53;;;;;;;18.46;83.39;95243.16;5095064;28;20932;-84
2023/09/26 04:46:11;;;;;;;14.40;7.63;;;;;;;18.49;83.27;95235.69;5095569;28;20885;-83
2023/09/26 04:48:38;;;;;;;21.57;7.10;;;;;;;18.51;83.32;95247.00;5059760;28;20476;-84
2023/09/26 04:51:08;;;;;;;13.70;7.37;;;;;;;18.56;82.52;95255.28;5095168;28;20428;-84
2023/09/26 04:53:35;;;;;;;10.43;7.30;;;;;;;18.60;82.61;95249.63;5095546;28;20450;-84
2023/09/26 04:56:03;;;;;;;18.93;8.50;;;;;;;18.61;82.51;95262.75;5095246;28;20485;-84
2023/09/26 04:58:33;;;;;;;19.57;8.10;;;;;;;18.61;82.17;95261.91;5095189;28;20487;-85
2023/09/26 05:01:01;;;;;;;25.53;7.93;;;;;;;18.61;82.29;95262.75;5094852;28;20435;-81
2023/09/26 05:03:29;;;;;;;17.97;7.80;;;;;;;18.64;82.31;95261.59;5095277;28;20438;-84
2023/09/26 05:05:55;;;;;;;15.13;7.27;;;;;;;18.69;82.43;95264.56;5095869;28;20530;-89
2023/09/26 05:08:24;;;;;;;12.00;7.50;;;;;;;18.75;82.17;95264.72;5079933;28;20442;-86
2023/09/26 05:10:54;;;;;;;15.40;6.73;;;;;;;18.84;83.41;95266.38;5097582;28;20453;-89
2023/09/26 05:13:23;;;;;;;26.20;8.10;;;;;;;19.05;87.47;95268.44;5096325;28;20452;-87
2023/09/26 05:15:53;;;;;;;11.90;6.83;;;;;;;19.15;85.63;95263.75;5060522;28;20842;-83
2023/09/26 05:18:24;;;;;;;28.90;8.70;;;;;;;19.26;86.14;95269.69;5095560;28;20437;-85
2023/09/26 05:21:23;;;;;;;11.60;7.17;;;;;;;19.47;81.53;95277.88;5094734;28;21044;-85
2023/09/26 05:36:18;;;;;;;16.97;7.30;;;;;;;24.03;71.64;95277.63;4914955;29;20538;-77
2023/09/26 05:38:50;;;;;;;9.00;5.63;;;;;;;24.09;56.41;95282.16;4859614;29;20594;-77
2023/09/26 05:50:21;;;;;;;9.73;5.17;;;;;;;25.58;55.82;95264.47;4863556;29;20539;-77
2023/09/26 05:52:52;;;;;;;19.83;7.03;;;;;;;26.06;53.12;95272.09;4914416;29;20460;-80
2023/09/26 05:55:25;;;;;;;23.63;5.70;;;;;;;26.19;48.80;95271.19;4914150;29;20448;-77
2023/09/26 05:57:56;;;;;;;21.50;6.03;;;;;;;25.96;50.27;95273.59;4914803;29;20454;-77
2023/09/26 06:00:28;;;;;;;18.57;6.40;;;;;;;26.01;53.06;95271.09;4917527;29;20456;-76
2023/09/26 06:02:54;;;;;;;22.67;6.23;;;;;;;25.37;48.58;95285.41;4951906;29;20469;-77
2023/09/26 06:05:23;;;;;;;19.03;6.00;;;;;;;25.46;51.06;95274.25;4952266;29;20449;-77
2023/09/26 06:07:51;;;;;;;18.03;8.20;;;;;;;24.82;50.59;95277.66;4952438;29;20473;-78
2023/09/26 06:10:19;;;;;;;13.63;8.33;;;;;;;24.71;52.73;95276.44;4951816;29;20534;-80
2023/09/26 06:22:22;;;;;;;18.40;5.57;;;;;;;23.83;52.46;95274.91;4895166;29;20477;-86
2023/09/26 06:25:04;;;;;;;31.20;7.20;;;;;;;23.61;55.21;95273.38;4896223;29;20468;-88
2023/09/26 06:38:43;;;;;;;23.20;6.23;;;;;;;23.99;53.01;95277.19;4705067;29;20457;-88
2023/09/26 06:41:10;;;;;;;11.57;4.80;;;;;;;23.77;53.99;95279.22;4803531;29;20445;-88
2023/09/26 06:43:37;;;;;;;10.70;4.73;;;;;;;22.88;56.58;95277.53;4802690;29;20448;-88
2023/09/26 06:46:06;;;;;;;11.10;5.77;;;;;;;22.86;56.77;95270.53;4803012;29;20468;-86
2023/09/26 06:48:34;;;;;;;15.80;6.13;;;;;;;22.84;56.88;95261.88;4802490;29;20548;-86
2023/09/26 06:51:01;;;;;;;11.63;4.90;;;;;;;22.73;57.77;95275.75;4819806;29;20732;-86
2023/09/26 06:53:28;;;;;;;13.07;5.40;;;;;;;22.55;58.32;95270.06;4832477;29;20459;-86
2023/09/26 06:56:02;;;;;;;12.63;5.50;;;;;;;22.33;59.90;95273.81;4838940;29;20494;-87
2023/09/26 06:58:29;;;;;;;18.03;5.20;;;;;;;22.51;59.74;95266.13;4839622;29;20540;-89
2023/09/26 07:00:55;;;;;;;8.27;4.30;;;;;;;22.12;60.88;95272.78;4857219;29;20456;-86
2023/09/26 07:03:22;;;;;;;12.20;5.90;;;;;;;22.17;60.95;95272.22;4913735;29;20443;-89
2023/09/26 07:05:49;;;;;;;12.00;5.03;;;;;;;21.92;61.93;95277.09;4913686;29;20445;-89
2023/09/26 07:08:16;;;;;;;17.30;5.67;;;;;;;21.91;62.40;95270.91;5040486;28;20467;-88
2023/09/26 07:10:43;;;;;;;12.40;5.70;;;;;;;22.42;61.69;95273.47;5075507;28;20481;-89
2023/09/26 07:13:11;;;;;;;19.70;5.73;;;;;;;22.59;61.14;95273.19;5075414;28;20507;-88
2023/09/26 07:15:38;;;;;;;23.50;6.47;;;;;;;22.84;60.57;95269.06;5075862;28;20444;-89
2023/09/26 07:18:09;;;;;;;15.83;6.80;;;;;;;23.10;60.07;95263.03;5075682;28;20443;-87
2023/09/26 07:20:36;;;;;;;12.90;6.23;;;;;;;23.39;58.57;95264.59;5075744;28;20493;-89
2023/09/26 07:23:03;;;;;;;13.23;4.93;;;;;;;23.51;57.04;95268.38;5075335;28;20479;-86
2023/09/26 07:25:30;;;;;;;8.80;4.93;;;;;;;23.20;58.50;95271.53;5074886;28;20506;-87
2023/09/26 07:27:57;;;;;;;14.03;5.87;;;;;;;22.91;59.52;95277.16;5075081;28;20966;-88
2023/09/26 07:30:25;;;;;;;20.70;5.90;;;;;;;22.71;59.69;95272.44;5074793;28;20495;-87
2023/09/26 07:32:52;;;;;;;16.60;5.87;;;;;;;22.34;60.08;95275.47;5075044;28;21166;-84
2023/09/26 07:35:19;;;;;;;13.03;5.50;;;;;;;21.94;61.94;95269.69;5075649;28;20442;-87
2023/09/26 07:37:46;;;;;;;10.47;5.93;;;;;;;21.79;62.86;95276.97;5075255;28;20439;-88
2023/09/26 07:40:13;;;;;;;10.97;4.90;;;;;;;21.76;63.39;95264.00;5074840;28;20499;-87
2023/09/26 07:42:40;;;;;;;18.23;6.20;;;;;;;21.68;62.87;95264.09;5040230;28;20442;-87
2023/09/26 07:45:08;;;;;;;8.70;5.07;;;;;;;21.61;62.74;95264.84;5074699;28;20496;-87
2023/09/26 07:47:36;;;;;;;10.73;4.80;;;;;;;21.55;62.81;95260.25;5074920;28;20435;-86
2023/09/26 07:50:05;;;;;;;21.50;5.43;;;;;;;21.67;63.00;95252.56;5074660;28;20502;-89
2023/09/26 07:52:32;;;;;;;6.83;4.90;;;;;;;22.14;63.27;95260.06;5074675;28;20928;-88
2023/09/26 07:54:59;;;;;;;11.13;5.70;;;;;;;22.63;60.06;95253.88;5074911;28;20444;-87
2023/09/26 07:57:25;;;;;;;15.50;5.63;;;;;;;23.01;58.76;95249.00;5075033;28;20439;-88
2023/09/26 07:59:52;;;;;;;19.30;5.57;;;;;;;23.23;56.53;95251.56;5074617;28;20449;-87
2023/09/26 08:02:20;;;;;;;14.43;5.30;;;;;;;23.54;56.96;95248.41;5074486;28;20451;-88
2023/09/26 08:04:48;;;;;;;17.53;5.10;;;;;;;23.81;55.81;95247.47;5074612;28;20781;-86
2023/09/26 08:07:15;;;;;;;15.10;4.73;;;;;;;23.67;53.95;95257.31;5074371;28;20803;-87
2023/09/26 08:09:42;;;;;;;10.93;5.20;;;;;;;23.73;54.97;95255.72;5074360;28;20488;-88
2023/09/26 08:12:09;;;;;;;15.40;5.83;;;;;;;23.91;53.22;95253.25;5074497;28;20456;-86
2023/09/26 08:14:36;;;;;;;12.90;5.70;;;;;;;23.95;53.27;95249.13;5074242;28;20787;-86
2023/09/26 08:17:03;;;;;;;14.90;5.60;;;;;;;23.63;52.70;95245.34;5054840;28;20446;-87
2023/09/26 08:19:30;;;;;;;15.10;6.03;;;;;;;23.39;52.80;95237.81;5038805;28;20450;-86
2023/09/26 08:21:58;;;;;;;25.47;7.33;;;;;;;23.63;51.93;95239.16;5073414;28;20803;-87
2023/09/26 08:24:25;;;;;;;13.80;5.07;;;;;;;23.99;52.52;95238.81;5038821;28;20452;-87
2023/09/26 08:26:51;;;;;;;17.27;4.53;;;;;;;24.24;49.56;95234.50;5073852;28;20940;-86
2023/09/26 08:29:18;;;;;;;7.33;5.70;;;;;;;24.39;48.96;95235.19;5073561;28;20986;-86
2023/09/26 08:31:45;;;;;;;7.80;5.30;;;;;;;24.49;50.67;95229.38;5073885;28;20871;-87
2023/09/26 08:34:12;;;;;;;23.43;7.67;;;;;;;24.75;50.83;95227.72;5073816;28;20448;-86
2023/09/26 08:36:38;;;;;;;16.83;4.73;;;;;;;24.97;50.39;95227.25;5073971;28;20452;-86
2023/09/26 08:39:08;;;;;;;8.40;4.43;;;;;;;24.54;49.60;95237.63;5073643;28;20437;-85
2023/09/26 08:41:37;;;;;;;9.43;5.17;;;;;;;24.16;51.07;95228.53;5073836;28;20483;-88
2023/09/26 08:44:04;;;;;;;15.57;5.80;;;;;;;24.40;51.14;95238.69;5073592;28;20437;-87
2023/09/26 08:46:31;;;;;;;12.23;6.30;;;;;;;24.56;50.64;95238.25;5073896;28;20455;-87
2023/09/26 08:48:59;;;;;;;13.33;4.57;;;;;;;24.18;50.34;95238.03;5073772;28;20448;-87
2023/09/26 08:51:26;;;;;;;10.07;5.23;;;;;;;24.50;50.62;95240.94;5072897;28;20950;-86
2023/09/26 08:53:53;;;;;;;10.40;5.00;;;;;;;24.59;50.77;95235.19;5054693;28;20448;-86
2023/09/26 08:56:22;;;;;;;8.83;5.40;;;;;;;24.81;49.59;95221.50;5073002;28;20814;-88
2023/09/26 08:58:50;;;;;;;8.97;5.30;;;;;;;25.19;50.55;95224.34;5073423;28;20456;-88
2023/09/26 09:01:18;;;;;;;12.37;5.07;;;;;;;25.39;48.24;95219.69;5073189;28;20445;-86
2023/09/26 09:03:46;;;;;;;13.57;5.50;;;;;;;25.39;48.98;95235.81;5073514;28;20460;-86
2023/09/26 09:06:13;;;;;;;12.03;4.27;;;;;;;25.10;49.35;95228.25;5073282;28;20441;-87
2023/09/26 09:08:40;;;;;;;5.23;4.73;;;;;;;24.62;49.03;95224.03;5073424;28;20448;-85
2023/09/26 09:11:07;;;;;;;10.97;5.40;;;;;;;24.38;50.85;95238.06;5073170;28;20480;-87
2023/09/26 09:13:38;;;;;;;12.63;4.53;;;;;;;24.53;50.62;95235.97;5072960;28;20437;-89
2023/09/26 09:16:09;;;;;;;9.70;4.93;;;;;;;24.42;50.30;95233.13;5073096;28;20468;-85
2023/09/26 09:18:36;;;;;;;13.57;5.17;;;;;;;24.28;50.92;95230.41;5073182;28;20448;-86
2023/09/26 09:21:20;;;;;;;7.93;4.87;;;;;;;24.51;50.35;95219.28;5073032;28;20445;-87
2023/09/26 09:23:47;;;;;;;7.73;4.77;;;;;;;24.87;49.95;95218.00;5073229;28;20441;-87
2023/09/26 09:26:14;;;;;;;13.40;5.17;;;;;;;24.94;49.14;95216.94;5073441;28;20814;-85
2023/09/26 09:28:41;;;;;;;9.93;4.93;;;;;;;25.10;48.59;95215.66;5072355;28;20465;-88
2023/09/26 09:31:08;;;;;;;18.07;5.43;;;;;;;25.22;48.98;95222.03;5072626;28;20986;-85
2023/09/26 09:33:37;;;;;;;10.53;5.40;;;;;;;25.48;48.41;95209.53;5054220;28;20806;-87
2023/09/26 09:36:04;;;;;;;12.67;4.30;;;;;;;25.47;47.82;95203.34;5072537;28;20827;-86
2023/09/26 09:38:33;;;;;;;6.70;5.10;;;;;;;24.89;48.09;95208.69;5072840;28;20444;-87
2023/09/26 09:40:59;;;;;;;15.20;4.87;;;;;;;24.39;49.91;95207.53;5073474;28;20449;-84
2023/09/26 09:43:26;;;;;;;10.30;5.30;;;;;;;24.36;49.55;95214.13;5073606;28;20434;-86
2023/09/26 09:45:57;;;;;;;13.33;4.97;;;;;;;24.30;50.27;95208.78;5073071;28;20441;-87
2023/09/26 09:48:27;;;;;;;7.70;4.60;;;;;;;24.11;50.41;95207.72;5074283;28;20444;-86
2023/09/26 09:50:55;;;;;;;17.43;4.90;;;;;;;24.20;51.01;95205.63;5074236;28;20484;-86
2023/09/26 09:53:24;;;;;;;18.80;5.20;;;;;;;23.91;48.99;95205.00;5074439;28;20927;-87
2023/09/26 09:55:53;;;;;;;13.13;5.33;;;;;;;23.70;51.08;95194.44;5073976;28;20437;-84
2023/09/26 09:58:29;;;;;;;16.37;5.77;;;;;;;23.88;50.62;95188.50;5073245;28;20448;-85
2023/09/26 10:00:57;;;;;;;10.17;5.50;;;;;;;23.76;50.50;95183.75;5092718;28;20432;-86
2023/09/26 10:03:25;;;;;;;14.37;5.07;;;;;;;24.17;50.17;95181.91;5092381;28;20428;-85
2023/09/26 10:05:53;;;;;;;9.57;4.30;;;;;;;24.34;48.68;95189.38;5093016;28;20510;-85
2023/09/26 10:08:24;;;;;;;17.47;4.60;;;;;;;24.31;50.66;95181.75;5093849;28;20432;-86
2023/09/26 10:10:51;;;;;;;14.13;5.30;;;;;;;24.19;50.88;95196.78;5093533;28;20885;-86
2023/09/26 10:13:18;;;;;;;7.80;5.40;;;;;;;24.30;52.40;95192.69;5093525;28;20451;-87
2023/09/26 10:16:07;;;;;;;11.83;4.47;;;;;;;24.43;50.68;95181.09;5093156;28;20498;-91
2023/09/26 10:18:37;;;;;;;7.93;4.73;;;;;;;24.59;51.45;95168.09;5092523;28;20930;-77
2023/09/26 10:21:04;;;;;;;16.03;5.57;;;;;;;24.76;50.28;95178.34;5092841;28;20447;-78
2023/09/26 10:23:31;;;;;;;15.70;5.90;;;;;;;24.68;50.57;95174.88;5092804;28;20851;-77
2023/09/26 10:25:58;;;;;;;9.73;4.47;;;;;;;24.76;49.69;95179.19;5046715;28;20989;-79
2023/09/26 10:28:25;;;;;;;15.13;5.30;;;;;;;24.94;50.89;95173.97;5085599;28;20456;-77
2023/09/26 10:30:56;;;;;;;8.23;4.87;;;;;;;25.02;49.79;95176.44;5092174;28;20491;-78
2023/09/26 10:33:25;;;;;;;18.00;5.40;;;;;;;24.91;50.25;95169.03;5092586;28;20511;-77
2023/09/26 10:35:51;;;;;;;5.80;4.60;;;;;;;24.82;47.98;95169.44;5092276;28;20444;-79
2023/09/26 10:38:23;;;;;;;13.97;4.53;;;;;;;24.68;50.04;95166.81;5092563;28;20432;-78
2023/09/26 10:40:51;;;;;;;9.90;4.33;;;;;;;24.64;48.65;95168.28;5086686;28;20433;-78
2023/09/26 10:43:17;;;;;;;8.50;4.43;;;;;;;24.63;48.25;95163.94;5057509;28;20928;-77
2023/09/26 10:45:45;;;;;;;6.97;3.80;;;;;;;24.67;48.20;95167.84;5079993;28;20463;-80
2023/09/26 10:48:12;;;;;;;4.47;3.33;;;;;;;24.63;46.80;95158.56;5079144;28;20481;-78
2023/09/26 10:50:42;;;;;;;16.00;4.60;;;;;;;24.45;48.98;95162.94;5077240;28;20484;-81
2023/09/26 10:53:08;;;;;;;9.93;4.40;;;;;;;24.59;48.18;95162.72;5045379;28;20509;-84
2023/09/26 10:55:36;;;;;;;9.83;5.30;;;;;;;24.68;49.14;95163.31;5091960;28;20440;-85
2023/09/26 10:58:03;;;;;;;7.53;4.40;;;;;;;24.78;48.32;95152.13;5096438;28;20522;-84
2023/09/26 11:00:29;;;;;;;4.47;3.63;;;;;;;24.99;48.17;95147.34;5094344;28;20424;-85
2023/09/26 11:02:57;;;;;;;6.60;4.70;;;;;;;25.23;48.57;95150.34;5096535;28;20448;-85
2023/09/26 11:05:27;;;;;;;12.23;5.70;;;;;;;25.27;48.93;95144.31;5096419;28;20456;-85
2023/09/26 11:07:55;;;;;;;11.67;4.80;;;;;;;25.37;48.71;95145.69;5094563;28;20925;-84
2023/09/26 11:10:22;;;;;;;15.40;5.37;;;;;;;25.35;49.01;95145.91;5096127;28;20439;-84
2023/09/26 11:12:49;;;;;;;9.10;5.83;;;;;;;25.20;48.74;95126.59;5095950;28;20448;-83
2023/09/26 11:15:16;;;;;;;11.50;4.80;;;;;;;25.01;49.40;95156.00;5096079;28;20896;-84
2023/09/26 11:17:43;;;;;;;10.20;5.67;;;;;;;24.71;50.17;95152.97;5096444;28;20810;-83
2023/09/26 11:20:11;;;;;;;15.23;5.00;;;;;;;24.45;50.87;95142.31;5096614;28;20436;-83
2023/09/26 11:22:47;;;;;;;10.00;5.97;;;;;;;24.41;52.04;95135.72;5096203;28;20451;-85
2023/09/26 11:25:16;;;;;;;12.33;5.50;;;;;;;24.50;52.04;95147.03;5096202;28;20435;-86
2023/09/26 11:27:45;;;;;;;14.67;6.23;;;;;;;24.43;50.80;95140.88;5096123;28;20436;-83
2023/09/26 11:30:16;;;;;;;10.40;5.50;;;;;;;24.37;51.15;95142.53;5096046;28;20472;-86
2023/09/26 11:32:45;;;;;;;18.53;6.63;;;;;;;24.43;50.90;95146.22;5095871;28;20563;-84
2023/09/26 11:35:12;;;;;;;9.73;6.87;;;;;;;24.22;52.43;95136.53;5096077;28;20444;-83
2023/09/26 11:37:39;;;;;;;12.40;6.10;;;;;;;24.33;51.79;95138.63;5095692;28;20454;-82
2023/09/26 11:40:12;;;;;;;10.47;5.93;;;;;;;24.40;52.71;95137.56;5096034;28;20792;-85
2023/09/26 11:42:46;;;;;;;12.53;6.30;;;;;;;24.60;52.55;95145.59;5095652;28;20914;-81
2023/09/26 11:45:21;;;;;;;17.77;6.00;;;;;;;24.71;50.89;95134.19;5094738;28;20466;-90
2023/09/26 11:47:48;;;;;;;17.33;5.87;;;;;;;24.51;51.20;95146.00;5095999;28;20470;-88
2023/09/26 11:50:15;;;;;;;19.20;6.20;;;;;;;24.54;52.24;95146.41;5096068;28;20440;-85
2023/09/26 11:52:42;;;;;;;14.33;5.53;;;;;;;24.41;51.81;95149.13;5094906;28;20488;-85
2023/09/26 11:55:09;;;;;;;13.30;6.20;;;;;;;24.13;52.92;95143.16;5095232;28;20468;-84
2023/09/26 11:57:36;;;;;;;6.80;6.00;;;;;;;24.10;53.57;95147.88;5095013;28;20519;-87
2023/09/26 12:00:11;;;;;;;20.40;6.20;;;;;;;23.97;53.06;95139.84;5094683;28;20439;-84
2023/09/26 12:02:38;;;;;;;18.97;5.73;;;;;;;23.99;54.20;95147.66;5069266;28;20455;-84
2023/09/26 12:05:06;;;;;;;16.10;6.20;;;;;;;24.06;54.09;95146.66;5074585;28;20509;-85
2023/09/26 12:07:36;;;;;;;8.03;4.47;;;;;;;24.19;52.88;95147.66;5055535;28;20524;-85
2023/09/26 12:10:04;;;;;;;11.90;5.23;;;;;;;24.26;52.96;95137.75;5072502;28;20452;-84
2023/09/26 12:12:31;;;;;;;10.53;5.33;;;;;;;24.32;53.10;95137.81;5074489;28;20535;-84